Clarksville, MI

10:48 PM EST on November 20, 2017 (GMT -0500)
MMICLR | | Change Station
Active Advisory: Flood Advisory Active Notice: Flood Advisory

Elev 892 ft 42.87 °N, 85.26 °W | Updated 188 days ago

Clear
Clear
80.0 °F
Feels Like 80 °F
N
5.0
Wind Variable Wind from SSW

Today
High -- | Low -- °F
--% Chance of Precip.
Yesterday
High -- | Low -- °F
Precip. -- in
Pressure 29.72 in
Visibility 10.0 miles
Clouds Clear
Heat Index 80 °F
Dew Point 55 °F
Humidity 42%
Rainfall 0.00 in
Snow Depth Not available.
7:39 AM 5:13 PM
Waxing Crescent, 6% visible
METAR KY70 210334Z AUTO 21016G22KT 10SM CLR 06/M02 A2972 RMK AO2 T00581023
Pressure 29.72 in
Visibility 10.0 miles
Clouds Clear
Heat Index 80 °F
Dew Point 55 °F
Humidity 42%
Rainfall 0.00 in
Snow Depth Not available.
7:39 AM 5:13 PM
Waxing Crescent, 6% visible
METAR KY70 210334Z AUTO 21016G22KT 10SM CLR 06/M02 A2972 RMK AO2 T00581023

Get Your Daily Forecast Email!

Thanks for signing up!

Be on the lookout for a verification email in your inbox.

You'll start receiving severe weather alerts in your inbox..

×

10-Day Weather Forecast

Almanac

Astronomy

Nov. 20, 2017 Rise Set
Actual Time
Civil Twilight
Nautical Twilight
Astronomical Twilight
Moon
Length of Visible Light
Length of Day
Tomorrow will be .
, % of the Moon is Illuminated

Today's Extremes

State Highs State Lows

Community

WunderPhotos

Category 6

Welcome to Category 6. This is the collective home for Weather Underground's featured writeups by Dr. Jeff Masters (right), Bob Henson (left), Chris Burt, and other regular contributors.

Nearby

Air Quality

  Air Quality AQ Index Pollutant
Not available.

Snow Depth

Station Depth Elevation

Earthquake Activity

City Distance Mag. Time & Date
Minimum magnitude displayed is 2.5.

Coastal Water Temperatures

Place Temperature

Stations

Nearby Weather Stations

Station Location Temp. Windchill Dew Point Humidity Wind Precip. Elev Updated Type
                   

Watches & Warnings

Flood Advisory
Issued: 8:46 PM EST Nov. 20, 2017 – National Weather Service

The flood advisory continues for
the Grand River at Ionia
* until Saturday evening.
* At 07 PM Monday the stage was 15.1 feet.
* Bankfull stage is 13.5 feet.
* Flood stage is 21.0 feet.
* Forecast, the river will rise to near 15.1 feet by after midnight
tonight.
* Impact, at 15.0 feet... high water affects north drive on Ionia
Fairgrounds.


Lat... Lon 4297 8524 4303 8488 4296 8499 4290 8521